createdAt,value
2023-03-31T00:02:03.351Z,99.31
2023-03-31T00:11:37.396Z,100.00
2023-03-31T00:21:11.859Z,100.00
2023-03-31T00:30:45.690Z,100.00
2023-03-31T00:40:21.089Z,100.00
2023-03-31T00:49:53.185Z,100.00
2023-03-31T00:59:26.212Z,100.00
2023-03-31T01:08:59.963Z,100.00
2023-03-31T01:18:35.368Z,100.00
2023-03-31T01:28:07.433Z,100.00
2023-03-31T01:37:40.942Z,100.00
2023-03-31T01:47:14.545Z,100.00
2023-03-31T01:56:50.260Z,100.00
2023-03-31T02:06:24.361Z,100.00
2023-03-31T02:15:58.439Z,100.00
2023-03-31T02:25:30.902Z,100.00
2023-03-31T02:35:04.811Z,100.00
2023-03-31T02:44:40.443Z,100.00
2023-03-31T02:54:13.013Z,97.74
2023-03-31T03:03:48.665Z,96.34
2023-03-31T03:13:22.533Z,96.38
2023-03-31T03:22:54.790Z,97.02
2023-03-31T03:32:28.386Z,98.00
2023-03-31T03:42:03.488Z,96.49
2023-03-31T03:51:37.347Z,97.10
2023-03-31T04:01:11.006Z,97.79
2023-03-31T04:10:43.056Z,98.71
2023-03-31T04:20:18.387Z,99.45
2023-03-31T04:29:50.512Z,100.00
2023-03-31T04:39:25.728Z,99.70
2023-03-31T04:48:57.811Z,100.00
2023-03-31T04:58:33.204Z,100.00
2023-03-31T05:08:04.771Z,100.00
2023-03-31T05:17:40.121Z,100.00
2023-03-31T05:27:12.420Z,100.00
2023-03-31T05:36:46.330Z,100.00
2023-03-31T05:46:19.844Z,100.00
2023-03-31T05:55:55.492Z,100.00
2023-03-31T06:05:27.618Z,100.00
2023-03-31T06:15:01.389Z,100.00
2023-03-31T06:24:36.784Z,100.00
2023-03-31T06:34:10.418Z,100.00
2023-03-31T06:43:42.277Z,100.00
2023-03-31T06:53:16.347Z,100.00
2023-03-31T07:02:52.044Z,100.00
2023-03-31T07:12:24.379Z,100.00
2023-03-31T07:21:59.954Z,100.00
2023-03-31T07:31:31.628Z,100.00
2023-03-31T07:32:35.667Z,100.00
2023-03-31T07:42:08.941Z,100.00
2023-03-31T07:51:40.803Z,100.00
2023-03-31T08:01:16.502Z,100.00
2023-03-31T08:10:51.123Z,100.00
2023-03-31T08:20:23.287Z,100.00
2023-03-31T08:29:58.799Z,100.00
2023-03-31T08:31:01.184Z,100.00
2023-03-31T08:32:05.350Z,100.00
2023-03-31T08:41:36.592Z,100.00
2023-03-31T08:42:40.584Z,100.00
2023-03-31T08:43:44.511Z,100.00
2023-03-31T08:44:46.827Z,100.00
2023-03-31T08:45:49.266Z,100.00
2023-03-31T08:46:51.662Z,100.00
2023-03-31T08:47:54.206Z,100.00
2023-03-31T08:48:56.591Z,100.00
2023-03-31T08:58:29.138Z,100.00
2023-03-31T08:59:31.843Z,99.66
2023-03-31T09:00:35.731Z,98.32
2023-03-31T09:01:48.288Z,98.65
2023-03-31T09:02:40.604Z,99.42
2023-03-31T09:03:42.981Z,98.66
2023-03-31T09:04:45.333Z,97.34
2023-03-31T09:05:59.220Z,96.77
2023-03-31T09:06:51.822Z,96.94
2023-03-31T09:07:54.139Z,96.00
2023-03-31T09:08:58.169Z,96.07
2023-03-31T09:10:00.519Z,94.95
2023-03-31T09:11:04.485Z,94.86
2023-03-31T09:12:06.743Z,94.88
2023-03-31T09:13:09.174Z,94.61
2023-03-31T09:14:11.611Z,96.14
2023-03-31T09:15:16.009Z,95.00
2023-03-31T09:16:16.905Z,95.65
2023-03-31T09:17:18.842Z,95.67
2023-03-31T09:18:24.874Z,94.45
2023-03-31T09:19:26.869Z,93.45
2023-03-31T09:20:30.681Z,93.78
2023-03-31T09:21:32.835Z,93.87
2023-03-31T09:22:35.252Z,93.80
2023-03-31T09:23:39.222Z,92.53
2023-03-31T09:24:41.486Z,92.17
2023-03-31T09:25:45.532Z,92.56
2023-03-31T09:26:47.846Z,90.54
2023-03-31T09:27:50.334Z,90.56
2023-03-31T09:28:52.719Z,91.13
2023-03-31T09:38:23.706Z,88.09
2023-03-31T09:39:27.674Z,89.38
2023-03-31T09:40:31.485Z,87.95
2023-03-31T09:41:34.434Z,87.91
2023-03-31T09:51:06.249Z,86.83
2023-03-31T09:52:10.174Z,86.81
2023-03-31T09:53:12.401Z,87.18
2023-03-31T09:54:24.862Z,86.26
2023-03-31T09:55:38.700Z,86.09
2023-03-31T09:56:30.779Z,85.93
2023-03-31T10:06:02.222Z,86.05
2023-03-31T10:07:04.507Z,87.28
2023-03-31T10:08:07.016Z,86.67
2023-03-31T10:09:09.348Z,88.04
2023-03-31T10:10:12.770Z,85.07
2023-03-31T10:11:14.159Z,87.91
2023-03-31T10:12:16.601Z,86.43
2023-03-31T10:13:20.618Z,87.29
2023-03-31T10:14:22.861Z,89.87
2023-03-31T10:15:25.162Z,91.21
2023-03-31T10:16:27.641Z,92.54
2023-03-31T10:17:30.452Z,93.12
2023-03-31T10:18:32.475Z,92.18
2023-03-31T10:19:34.822Z,91.23
2023-03-31T10:20:37.227Z,91.34
2023-03-31T10:21:39.771Z,92.63
2023-03-31T10:22:43.755Z,93.59
2023-03-31T10:23:46.126Z,94.67
2023-03-31T10:24:48.462Z,95.51
2023-03-31T10:25:52.512Z,95.97
2023-03-31T10:26:54.810Z,96.61
2023-03-31T10:27:57.210Z,97.79
2023-03-31T10:29:01.232Z,98.41
2023-03-31T10:30:03.566Z,98.97
2023-03-31T10:31:06.243Z,98.20
2023-03-31T10:32:08.448Z,98.55
2023-03-31T10:33:21.783Z,98.66
2023-03-31T10:34:14.793Z,97.98
2023-03-31T10:35:17.121Z,98.21
2023-03-31T10:36:19.639Z,97.99
2023-03-31T10:37:23.660Z,97.62
2023-03-31T10:38:27.641Z,97.46
2023-03-31T10:39:29.875Z,98.59
2023-03-31T10:40:32.399Z,97.12
2023-03-31T10:41:36.357Z,96.40
2023-03-31T10:42:38.651Z,97.26
2023-03-31T10:43:41.172Z,97.62
2023-03-31T10:44:45.146Z,94.59
2023-03-31T10:45:47.424Z,95.83
2023-03-31T10:46:49.933Z,95.25
2023-03-31T10:47:52.312Z,94.83
2023-03-31T10:48:54.742Z,96.12
2023-03-31T10:49:59.776Z,96.89
2023-03-31T10:51:01.967Z,94.59
2023-03-31T10:52:04.471Z,93.47
2023-03-31T10:53:06.758Z,94.80
2023-03-31T10:54:09.277Z,92.64
2023-03-31T10:55:11.686Z,92.81
2023-03-31T10:56:14.301Z,91.55
2023-03-31T10:57:16.796Z,90.55
2023-03-31T10:58:19.458Z,92.77
2023-03-31T10:59:21.837Z,91.27
2023-03-31T11:00:24.307Z,92.96
2023-03-31T11:01:26.732Z,92.94
2023-03-31T11:02:29.241Z,92.02
2023-03-31T11:03:33.391Z,92.05
2023-03-31T11:04:35.584Z,91.92
2023-03-31T11:05:38.075Z,91.10
2023-03-31T11:06:40.363Z,90.43
2023-03-31T11:07:42.799Z,90.31
2023-03-31T11:08:45.258Z,88.80
2023-03-31T11:09:47.557Z,88.99
2023-03-31T11:10:49.991Z,89.38
2023-03-31T11:11:54.226Z,90.42
2023-03-31T11:12:56.358Z,89.48
2023-03-31T11:13:58.709Z,86.47
2023-03-31T11:15:01.159Z,85.00
2023-03-31T11:16:03.674Z,86.15
2023-03-31T11:17:07.732Z,88.07
2023-03-31T11:18:10.063Z,84.89
2023-03-31T11:19:12.457Z,82.35
2023-03-31T11:20:14.900Z,81.44
2023-03-31T11:21:17.363Z,81.76
2023-03-31T11:22:19.889Z,82.64
2023-03-31T11:23:22.366Z,82.68
2023-03-31T11:24:26.370Z,80.39
2023-03-31T11:25:28.584Z,79.83
2023-03-31T11:26:31.127Z,78.62
2023-03-31T11:27:33.555Z,78.54
2023-03-31T11:28:37.628Z,77.68
2023-03-31T11:29:39.987Z,79.13
2023-03-31T11:30:44.053Z,75.29
2023-03-31T11:31:47.995Z,75.81
2023-03-31T11:32:52.016Z,76.33
2023-03-31T11:33:54.207Z,73.56
2023-03-31T11:34:56.616Z,73.72
2023-03-31T11:36:00.837Z,74.16
2023-03-31T11:37:03.166Z,74.24
2023-03-31T11:38:05.599Z,74.49
2023-03-31T11:39:08.095Z,73.74
2023-03-31T11:40:12.040Z,74.85
2023-03-31T11:41:14.346Z,75.49
2023-03-31T11:42:16.860Z,73.77
2023-03-31T11:43:20.882Z,72.80
2023-03-31T11:44:23.142Z,73.57
2023-03-31T11:45:25.706Z,73.38
2023-03-31T11:46:28.165Z,73.61
2023-03-31T11:47:32.121Z,73.97
2023-03-31T11:48:36.056Z,74.61
2023-03-31T11:49:38.375Z,75.57
2023-03-31T11:50:40.841Z,75.16
2023-03-31T11:51:43.245Z,75.44
2023-03-31T11:52:47.304Z,76.15
2023-03-31T11:53:51.240Z,76.13
2023-03-31T11:54:53.681Z,75.83
2023-03-31T11:55:56.078Z,73.87
2023-03-31T11:57:00.204Z,74.72
2023-03-31T11:58:02.395Z,74.69
2023-03-31T11:59:06.435Z,76.61
2023-03-31T12:00:08.822Z,78.03
2023-03-31T12:01:11.265Z,79.40
2023-03-31T12:02:15.310Z,76.04
2023-03-31T12:03:19.376Z,75.01
2023-03-31T12:04:21.575Z,75.65
2023-03-31T12:05:24.034Z,74.96
2023-03-31T12:06:26.448Z,74.80
2023-03-31T12:07:28.857Z,74.61
2023-03-31T12:08:31.394Z,74.53
2023-03-31T12:09:33.829Z,74.54
2023-03-31T12:10:36.249Z,76.80
2023-03-31T12:11:38.699Z,77.65
2023-03-31T12:12:42.804Z,73.86
2023-03-31T12:13:45.042Z,70.67
2023-03-31T12:14:49.115Z,69.93
2023-03-31T12:15:53.157Z,71.52
2023-03-31T12:16:55.409Z,72.58
2023-03-31T12:17:57.944Z,71.03
2023-03-31T12:19:00.325Z,70.56
2023-03-31T12:20:02.833Z,70.65
2023-03-31T12:21:05.289Z,68.18
2023-03-31T12:22:07.789Z,69.55
2023-03-31T12:23:10.256Z,68.82
2023-03-31T12:24:12.718Z,68.51
2023-03-31T12:25:15.409Z,69.52
2023-03-31T12:26:17.880Z,70.41
2023-03-31T12:27:20.288Z,69.98
2023-03-31T12:28:24.268Z,70.10
2023-03-31T12:29:26.607Z,70.17
2023-03-31T12:30:29.513Z,71.38
2023-03-31T12:31:32.631Z,71.08
2023-03-31T12:32:34.869Z,71.26
2023-03-31T12:33:37.963Z,70.90
2023-03-31T12:34:40.281Z,71.02
2023-03-31T12:35:44.427Z,71.51
2023-03-31T12:36:48.900Z,68.82
2023-03-31T12:37:51.520Z,67.68
2023-03-31T12:38:56.289Z,68.21
2023-03-31T12:39:58.989Z,69.43
2023-03-31T12:41:01.409Z,69.39
2023-03-31T12:42:04.688Z,67.58
2023-03-31T12:43:07.320Z,67.59
2023-03-31T12:44:11.327Z,67.22
2023-03-31T12:45:13.839Z,66.78
2023-03-31T12:46:17.925Z,66.91
2023-03-31T12:47:22.022Z,67.20
2023-03-31T12:48:24.204Z,67.70
2023-03-31T12:49:26.641Z,67.16
2023-03-31T12:50:28.994Z,66.92
2023-03-31T12:51:32.998Z,67.10
2023-03-31T12:52:35.493Z,66.94
2023-03-31T12:53:38.136Z,66.78
2023-03-31T12:54:42.124Z,67.27
2023-03-31T12:55:44.955Z,67.39
2023-03-31T12:56:48.757Z,68.34
2023-03-31T12:57:51.158Z,69.07
2023-03-31T12:58:53.442Z,68.05
2023-03-31T12:59:57.835Z,67.47
2023-03-31T13:00:59.956Z,65.82
2023-03-31T13:02:14.767Z,65.01
2023-03-31T13:03:23.267Z,64.70
2023-03-31T13:04:27.996Z,64.29
2023-03-31T13:05:31.740Z,66.99
2023-03-31T13:06:33.901Z,69.80
2023-03-31T13:07:36.094Z,71.81
2023-03-31T13:08:38.632Z,74.53
2023-03-31T13:09:40.918Z,76.08
2023-03-31T13:10:43.219Z,77.58
2023-03-31T13:11:45.379Z,76.86
2023-03-31T13:12:48.250Z,78.78
2023-03-31T13:14:52.624Z,80.62
2023-03-31T13:15:55.003Z,82.97
2023-03-31T13:16:57.414Z,83.04
2023-03-31T13:17:59.634Z,82.01
2023-03-31T13:19:02.125Z,85.47
2023-03-31T13:20:04.378Z,82.70
2023-03-31T13:21:06.804Z,82.48
2023-03-31T13:22:08.993Z,82.38
2023-03-31T13:23:11.371Z,83.47
2023-03-31T13:24:13.719Z,84.46
2023-03-31T13:25:16.171Z,83.34
2023-03-31T13:26:18.828Z,83.10
2023-03-31T13:27:21.234Z,84.19
2023-03-31T13:28:23.484Z,84.27
2023-03-31T13:29:25.829Z,85.06
2023-03-31T13:30:28.324Z,84.93
2023-03-31T13:31:30.628Z,85.16
2023-03-31T13:32:32.869Z,86.23
2023-03-31T13:33:35.285Z,87.18
2023-03-31T13:34:39.274Z,87.61
2023-03-31T13:35:43.168Z,85.02
2023-03-31T13:36:47.068Z,85.26
2023-03-31T13:37:50.912Z,85.63
2023-03-31T13:38:54.835Z,85.60
2023-03-31T13:39:57.109Z,85.96
2023-03-31T13:40:59.545Z,85.37
2023-03-31T13:42:02.062Z,83.14
2023-03-31T13:43:06.077Z,84.43
2023-03-31T13:44:08.406Z,82.17
2023-03-31T13:45:12.473Z,80.80
2023-03-31T13:46:16.464Z,81.97
2023-03-31T13:47:20.273Z,81.96
2023-03-31T13:48:24.174Z,78.65
2023-03-31T13:49:26.465Z,78.61
2023-03-31T13:50:28.916Z,79.41
2023-03-31T13:51:31.357Z,78.82
2023-03-31T13:52:33.803Z,78.76
2023-03-31T13:53:36.298Z,76.60
2023-03-31T13:54:38.740Z,77.22
2023-03-31T13:55:41.261Z,76.07
2023-03-31T13:56:43.700Z,75.79
2023-03-31T13:57:47.764Z,74.08
2023-03-31T13:58:51.553Z,73.82
2023-03-31T13:59:53.887Z,73.68
2023-03-31T14:00:56.369Z,74.16
2023-03-31T14:01:58.981Z,73.65
2023-03-31T14:03:01.323Z,74.43
2023-03-31T14:04:05.154Z,74.76
2023-03-31T14:05:09.153Z,70.87
2023-03-31T14:06:11.469Z,71.99
2023-03-31T14:07:14.122Z,71.48
2023-03-31T14:08:16.294Z,71.23
2023-03-31T14:09:20.362Z,69.40
2023-03-31T14:10:22.699Z,70.55
2023-03-31T14:11:26.821Z,71.32
2023-03-31T14:12:29.241Z,69.40
2023-03-31T14:13:31.694Z,68.13
2023-03-31T14:14:34.088Z,69.95
2023-03-31T14:15:36.603Z,68.63
2023-03-31T14:16:39.029Z,68.49
2023-03-31T14:17:41.554Z,67.67
2023-03-31T14:18:45.562Z,68.40
2023-03-31T14:19:47.835Z,65.72
2023-03-31T14:20:51.867Z,65.87
2023-03-31T14:21:54.252Z,66.82
2023-03-31T14:22:58.307Z,65.27
2023-03-31T14:24:00.630Z,65.44
2023-03-31T14:25:03.045Z,66.68
2023-03-31T14:26:05.473Z,66.32
2023-03-31T14:27:07.930Z,66.06
2023-03-31T14:28:10.388Z,67.15
2023-03-31T14:29:14.462Z,65.96
2023-03-31T14:30:16.791Z,64.43
2023-03-31T14:31:19.239Z,66.96
2023-03-31T14:32:21.702Z,66.08
2023-03-31T14:33:24.164Z,67.27
2023-03-31T14:34:28.246Z,67.41
2023-03-31T14:35:30.590Z,68.41
2023-03-31T14:36:33.097Z,66.06
2023-03-31T14:37:37.066Z,65.42
2023-03-31T14:38:39.302Z,67.19
2023-03-31T14:39:41.747Z,66.41
2023-03-31T14:40:45.733Z,67.60
2023-03-31T14:41:49.667Z,70.17
2023-03-31T14:42:52.000Z,69.30
2023-03-31T14:43:54.392Z,68.50
2023-03-31T14:44:56.819Z,70.41
2023-03-31T14:46:00.869Z,69.92
2023-03-31T14:47:04.844Z,69.69
2023-03-31T14:48:07.193Z,70.71
2023-03-31T14:49:09.490Z,71.29
2023-03-31T14:50:11.938Z,73.64
2023-03-31T14:51:14.296Z,74.80
2023-03-31T14:52:16.908Z,78.68
2023-03-31T14:53:21.330Z,81.26
2023-03-31T14:54:23.562Z,80.77
2023-03-31T14:55:28.589Z,81.83
2023-03-31T14:56:28.416Z,80.12
2023-03-31T14:57:30.832Z,80.13
2023-03-31T14:58:33.210Z,80.41
2023-03-31T14:59:35.648Z,82.47
2023-03-31T15:00:38.062Z,83.68
2023-03-31T15:01:40.437Z,84.78
2023-03-31T15:02:42.955Z,83.48
2023-03-31T15:03:45.381Z,84.03
2023-03-31T15:04:47.797Z,84.23
2023-03-31T15:05:50.409Z,82.70
2023-03-31T15:06:52.657Z,81.15
2023-03-31T15:07:56.774Z,82.19
2023-03-31T15:09:00.698Z,82.44
2023-03-31T15:10:03.118Z,82.07
2023-03-31T15:11:12.785Z,83.15
2023-03-31T15:12:07.963Z,83.08
2023-03-31T15:13:10.471Z,82.53
2023-03-31T15:14:12.857Z,78.36
2023-03-31T15:15:15.421Z,77.34
2023-03-31T15:16:19.496Z,76.20
2023-03-31T15:17:22.030Z,75.46
2023-03-31T15:18:24.572Z,74.43
2023-03-31T15:19:26.998Z,73.58
2023-03-31T15:20:31.087Z,72.01
2023-03-31T15:21:35.090Z,73.18
2023-03-31T15:22:37.456Z,70.69
2023-03-31T15:23:41.480Z,72.00
2023-03-31T15:24:45.434Z,71.73
2023-03-31T15:25:49.305Z,72.42
2023-03-31T15:26:51.681Z,70.77
2023-03-31T15:27:55.805Z,71.00
2023-03-31T15:28:58.130Z,71.58
2023-03-31T15:30:00.496Z,72.51
2023-03-31T15:31:10.381Z,72.87
2023-03-31T15:32:08.513Z,72.33
2023-03-31T15:33:18.684Z,73.83
2023-03-31T15:34:13.278Z,74.01
2023-03-31T15:35:21.953Z,73.87
2023-03-31T15:36:20.035Z,74.00
2023-03-31T15:37:22.502Z,75.10
2023-03-31T15:38:25.804Z,73.52
2023-03-31T15:39:29.134Z,74.32
2023-03-31T15:40:31.500Z,74.24
2023-03-31T15:41:33.982Z,74.86
2023-03-31T15:42:37.008Z,74.43
2023-03-31T15:43:39.858Z,73.48
2023-03-31T15:44:43.213Z,73.79
2023-03-31T15:45:45.398Z,73.77
2023-03-31T15:46:48.833Z,73.96
2023-03-31T15:47:52.826Z,73.86
2023-03-31T15:48:54.793Z,74.28
2023-03-31T15:49:57.961Z,74.09
2023-03-31T15:51:00.424Z,73.87
2023-03-31T15:52:02.827Z,73.57
2023-03-31T15:53:06.292Z,73.71
2023-03-31T15:54:08.690Z,73.04
2023-03-31T15:55:12.266Z,73.59
2023-03-31T15:56:15.732Z,72.96
2023-03-31T15:57:19.027Z,73.18
2023-03-31T15:58:22.294Z,74.62
2023-03-31T16:00:28.516Z,74.93
2023-03-31T16:01:32.085Z,75.18
2023-03-31T16:02:35.250Z,75.98
2023-03-31T16:03:41.445Z,74.89
2023-03-31T16:04:43.643Z,75.15
2023-03-31T16:06:49.566Z,76.63
2023-03-31T16:07:51.710Z,76.84
2023-03-31T16:08:54.190Z,77.18
2023-03-31T16:10:02.817Z,77.61
2023-03-31T16:11:05.731Z,77.45
2023-03-31T16:12:07.961Z,76.74
2023-03-31T16:13:10.326Z,76.99
2023-03-31T16:14:18.362Z,77.08
2023-03-31T16:15:22.624Z,77.05
2023-03-31T16:16:24.843Z,76.42
2023-03-31T16:17:27.234Z,77.20
2023-03-31T16:18:29.508Z,77.66
2023-03-31T16:19:32.016Z,76.74
2023-03-31T16:20:35.345Z,77.39
2023-03-31T16:21:38.771Z,78.20
2023-03-31T16:22:41.100Z,78.24
2023-03-31T16:23:44.555Z,79.28
2023-03-31T16:24:49.461Z,79.53
2023-03-31T16:25:51.682Z,80.81
2023-03-31T16:26:56.597Z,80.40
2023-03-31T16:27:58.843Z,78.84
2023-03-31T16:29:02.909Z,79.52
2023-03-31T16:30:06.889Z,77.76
2023-03-31T16:31:09.239Z,77.58
2023-03-31T16:32:11.687Z,77.87
2023-03-31T16:33:17.908Z,78.70
2023-03-31T16:34:20.115Z,79.21
2023-03-31T16:35:23.588Z,79.71
2023-03-31T16:36:26.103Z,79.76
2023-03-31T16:37:28.336Z,79.97
2023-03-31T16:38:32.312Z,80.39
2023-03-31T16:39:35.682Z,80.57
2023-03-31T16:40:37.955Z,80.40
2023-03-31T16:41:40.309Z,79.13
2023-03-31T16:42:44.881Z,78.32
2023-03-31T16:43:47.127Z,78.50
2023-03-31T16:44:56.345Z,78.62
2023-03-31T16:45:52.140Z,78.98
2023-03-31T16:46:55.523Z,80.01
2023-03-31T16:48:01.992Z,77.27
2023-03-31T16:49:00.424Z,78.06
2023-03-31T16:50:02.867Z,77.46
2023-03-31T16:51:06.808Z,77.85
2023-03-31T16:52:10.510Z,77.38
2023-03-31T16:53:13.770Z,78.04
2023-03-31T16:54:16.125Z,77.40
2023-03-31T16:55:18.379Z,77.66
2023-03-31T16:56:22.436Z,78.27
2023-03-31T16:57:24.862Z,77.96
2023-03-31T16:58:28.292Z,77.59
2023-03-31T16:59:30.628Z,77.91
2023-03-31T17:00:33.015Z,77.61
2023-03-31T17:01:35.625Z,77.99
2023-03-31T17:02:38.030Z,77.79
2023-03-31T17:03:40.490Z,77.72
2023-03-31T17:04:42.915Z,77.89
2023-03-31T17:05:45.354Z,77.91
2023-03-31T17:06:47.960Z,78.30
2023-03-31T17:07:50.652Z,78.16
2023-03-31T17:08:54.208Z,77.94
2023-03-31T17:09:57.465Z,77.91
2023-03-31T17:11:00.087Z,78.20
2023-03-31T17:12:02.471Z,77.84
2023-03-31T17:13:06.586Z,77.63
2023-03-31T17:22:36.663Z,77.98
2023-03-31T17:23:39.355Z,78.05
2023-03-31T17:24:42.670Z,78.02
2023-03-31T17:25:46.002Z,77.70
2023-03-31T17:26:48.589Z,77.41
2023-03-31T17:36:21.182Z,76.23
2023-03-31T17:37:25.313Z,75.97
2023-03-31T17:46:58.177Z,85.95
2023-03-31T17:56:30.931Z,89.36
2023-03-31T18:06:02.497Z,93.17
2023-03-31T18:15:34.268Z,93.59
2023-03-31T18:25:07.561Z,91.01
2023-03-31T18:34:41.802Z,90.09
2023-03-31T18:44:14.910Z,89.67
2023-03-31T18:53:50.478Z,92.29
2023-03-31T19:03:21.776Z,92.01
2023-03-31T19:12:56.220Z,90.54
2023-03-31T19:22:30.178Z,89.53
2023-03-31T19:32:05.062Z,88.51
2023-03-31T19:41:39.075Z,86.58
2023-03-31T19:42:46.548Z,86.39
2023-03-31T19:52:16.016Z,84.66
2023-03-31T20:01:47.277Z,83.06
2023-03-31T20:11:18.829Z,83.31
2023-03-31T20:20:53.126Z,84.42
2023-03-31T20:30:26.467Z,85.73
2023-03-31T20:39:58.503Z,85.65
2023-03-31T20:49:31.716Z,86.93
2023-03-31T20:59:03.705Z,87.54
2023-03-31T21:08:35.316Z,87.48
2023-03-31T21:18:08.837Z,87.43
2023-03-31T21:27:41.922Z,87.48
2023-03-31T21:37:17.749Z,87.00
2023-03-31T21:46:48.470Z,86.78
2023-03-31T21:56:23.412Z,86.43
2023-03-31T22:05:58.385Z,85.82
2023-03-31T22:15:29.897Z,84.82
2023-03-31T22:25:02.972Z,84.67
2023-03-31T22:34:36.317Z,83.67
2023-03-31T22:44:09.022Z,83.65
2023-03-31T22:53:43.208Z,84.47
2023-03-31T23:03:18.688Z,83.29
2023-03-31T23:12:51.507Z,83.66
2023-03-31T23:22:25.366Z,83.24
2023-03-31T23:32:01.208Z,82.70
2023-03-31T23:41:33.489Z,82.17
2023-03-31T23:51:08.803Z,82.26
2023-03-31T23:52:11.077Z,81.94
